CZ-0080 weather

Sázava
Central Bohemian Region, Czechia

Public forecast

Using degrees Celsius for public forecast. Weather courtesy of forecast.io.

METAR (pilot weather report)

Closest report is Čáslav Air Base, 17.4 nm (32.2 km) E. Retrieved 2019/03/21 03:00 UTC (6 minutes ago):

LKCV 210300Z 14006KT CAVOK 01/M03 Q1034 NOSIG RMK BLU BLU

TAF (pilot weather forecast)

Closest forecast is Čáslav Air Base, 17.4 nm (32.2 km) E. Retrieved 2019/03/21 00:00 UTC (3 hours ago):

TAF LKCV 202300Z 2100/2200 13004KT CAVOK TEMPO 2103/2107 6000 NSC BECMG 2109/2111 33006KT BECMG 2117/2120 VRB02KT